Flight Track Log - Related Links

Times and Time Zones

All times are in EDT time to prevent confusion due to time zone crossing. See the SKW6306 flight status page for this flight to view local times or setup timezone preferences in your user account.

Time Position Orientation Groundspeed Altitude Reporting Facility
EDT Latitude Longitude Course Direction KTS MPH feet Rate Location/Type
Sun 02:51:30 PM 39.9333 -104.6833 346° North 211 243 6,700  Level Denver TRACON
Sun 02:52:30 PM 40.0000 -104.6667 11° North 261 300 8,200 1,737 Climbing Denver TRACON
Sun 02:53:24 PM 40.0667 -104.6667 360° North 293 337 10,000 1,979 Climbing Denver TRACON
Sun 02:54:00 PM 40.2826 -104.8064 347° North  Level FlightAware Approximate
Sun 02:54:07 PM 40.1217 -104.6756 353° North 292 336 11,400  Level Denver Center
Sun 02:55:00 PM 40.3909 -104.8414 346° North  Level FlightAware Approximate
Sun 02:55:09 PM 40.2122 -104.6989 349° North 308 354 13,300  Level Denver Center
Sun 02:56:00 PM 40.4991 -104.8775 346° North  Level FlightAware Approximate
Sun 02:56:11 PM 40.3014 -104.7217 349° North 326 375 14,800  Level Denver Center
Sun 02:57:13 PM 40.4003 -104.7483 348° North 339 390 16,600 1,403 Climbing Denver Center
Sun 02:58:15 PM 40.4919 -104.7725 349° North 339 390 17,700 1,065 Climbing Denver Center
Sun 02:59:17 PM 40.5997 -104.7936 352° North 361 415 18,800 1,258 Climbing Denver Center
Sun 03:00:19 PM 40.6981 -104.8181 349° North 361 415 20,300 1,258 Climbing Denver Center
Sun 03:01:21 PM 40.7972 -104.8308 354° North 350 403 21,400 1,016 Climbing Denver Center
Sun 03:02:23 PM 40.8997 -104.8539 350° North 369 425 22,400 960 Climbing Denver Center
Sun 03:03:26 PM 41.0181 -104.8839 349° North 377 434 23,400 774 Climbing Denver Center
Sun 03:04:27 PM 41.1192 -104.9047 351° North 382 440 24,000 683 Climbing Denver Center
Sun 03:05:29 PM 41.2206 -104.9258 351° North 384 442 24,800 823 Climbing Denver Center
Sun 03:06:31 PM 41.3392 -104.9503 351° North 384 442 25,700 677 Climbing Denver Center
Sun 03:07:33 PM 41.4422 -104.9747 350° North 390 449 26,200 484 Climbing Denver Center
Sun 03:08:35 PM 41.5658 -105.0006 351° North 399 459 26,700 484 Climbing Denver Center
Sun 03:09:37 PM 41.6747 -105.0242 351° North 409 471 27,200 629 Climbing Denver Center
Sun 03:10:39 PM 41.8031 -105.0528 351° North 416 479 28,000 677 Climbing Denver Center
Sun 03:11:41 PM 41.9133 -105.0769 351° North 418 481 28,600 677 Climbing Denver Center
Sun 03:12:43 PM 42.0414 -105.1064 350° North 417 480 29,400 726 Climbing Denver Center
Sun 03:13:45 PM 42.1500 -105.1297 351° North 413 475 30,100 532 Climbing Denver Center
Sun 03:14:47 PM 42.2597 -105.1539 351° North 415 478 30,500 488 Climbing Denver Center
Sun 03:15:48 PM 42.3892 -105.1831 351° North 417 480 31,100 537 Climbing Denver Center
Sun 03:16:50 PM 42.5000 -105.2086 350° North 418 481 31,600 435 Climbing Denver Center
Sun 03:17:52 PM 42.6278 -105.2372 351° North 415 478 32,000 194 Climbing Denver Center
Sun 03:18:54 PM 42.7400 -105.2622 351° North 422 486 32,000  Level Denver Center
Sun 03:19:56 PM 42.8739 -105.2928 351° North 432 497 32,000  Level Denver Center
Sun 03:20:58 PM 42.9881 -105.3175 351° North 431 496 32,000  Level Denver Center
Sun 03:22:00 PM 43.1025 -105.3428 351° North 433 498 32,000  Level Denver Center
Sun 03:23:02 PM 43.2331 -105.3742 350° North 427 491 32,000  Level Denver Center
Sun 03:24:03 PM 43.3467 -105.3983 351° North 429 494 32,000  Level Denver Center
Sun 03:25:05 PM 43.4769 -105.4286 350° North 426 490 32,000  Level Denver Center
Sun 03:26:07 PM 43.5897 -105.4550 350° North 427 491 32,000  Level Denver Center
Sun 03:27:09 PM 43.7208 -105.4856 350° North 427 491 32,000  Level Denver Center
Sun 03:28:11 PM 43.8342 -105.5097 351° North 428 493 32,000  Level Denver Center
Sun 03:29:13 PM 43.9458 -105.5378 350° North 427 491 32,000  Level Denver Center
Sun 03:30:14 PM 44.0767 -105.5669 351° North 426 490 32,000  Level Denver Center
Sun 03:31:16 PM 44.1875 -105.5936 350° North 423 487 32,000  Level Denver Center
Sun 03:32:18 PM 44.3175 -105.6264 350° North 425 489 32,000  Level Denver Center
Sun 03:33:09 PM 44.4111 -105.6475 351° North 423 487 32,000  Level Salt Lake Center
Sun 03:34:10 PM 44.5408 -105.6783 350° North 422 486 32,000  Level Salt Lake Center
Sun 03:35:12 PM 44.6514 -105.7053 350° North 422 486 32,000  Level Salt Lake Center
Sun 03:36:14 PM 44.7692 -105.7339 350° North 424 488 32,000  Level Salt Lake Center
Sun 03:37:16 PM 44.8989 -105.7656 350° North 424 488 32,000  Level Salt Lake Center
Sun 03:38:18 PM 45.0103 -105.7922 350° North 425 489 32,000  Level Salt Lake Center
Sun 03:39:20 PM 45.1208 -105.8192 350° North 423 487 32,000  Level Salt Lake Center
Sun 03:40:22 PM 45.2514 -105.8517 350° North 427 491 32,000  Level Salt Lake Center
Sun 03:41:24 PM 45.3617 -105.8778 351° North 422 486 32,000  Level Salt Lake Center
Sun 03:42:25 PM 45.4925 -105.9100 350° North 426 490 32,000  Level Salt Lake Center
Sun 03:43:27 PM 45.6039 -105.9397 349° North 427 491 32,000  Level Salt Lake Center
Sun 03:44:29 PM 45.7322 -105.9708 350° North 421 484 32,000  Level Salt Lake Center
Sun 03:45:31 PM 45.8406 -105.9950 351° North 417 480 32,000  Level Salt Lake Center
Sun 03:46:33 PM 45.9672 -106.0242 351° North 413 475 32,000  Level Salt Lake Center
Sun 03:47:35 PM 46.0786 -106.0525 350° North 418 481 32,000  Level Salt Lake Center
Sun 03:48:37 PM 46.2083 -106.0869 350° North 422 486 32,000  Level Salt Lake Center
Sun 03:49:38 PM 46.3192 -106.1156 350° North 423 487 32,000  Level Salt Lake Center
Sun 03:50:40 PM 46.4292 -106.1447 350° North 422 486 32,000  Level Salt Lake Center
Sun 03:51:42 PM 46.5592 -106.1811 349° North 423 487 32,000  Level Salt Lake Center
Sun 03:52:44 PM 46.6686 -106.2078 351° North 421 484 32,000  Level Salt Lake Center
Sun 03:53:45 PM 46.7975 -106.2428 349° North 419 482 32,000  Level Salt Lake Center
Sun 03:54:47 PM 46.8989 -106.2697 350° North 420 483 32,000  Level Salt Lake Center
Sun 03:55:49 PM 47.0128 -106.3003 350° North 418 481 32,000  Level Salt Lake Center
Sun 03:56:51 PM 47.1433 -106.3336 350° North 416 479 32,000  Level Salt Lake Center
Sun 03:57:52 PM 47.2708 -106.3686 349° North 417 480 32,000  Level Salt Lake Center
Sun 03:58:54 PM 47.3803 -106.3975 350° North 418 481 32,000  Level Salt Lake Center
Sun 03:59:56 PM 47.4922 -106.4278 350° North 417 480 32,000  Level Salt Lake Center
Sun 04:00:57 PM 47.6067 -106.4586 350° North 416 479 32,000  Level Salt Lake Center
Sun 04:01:59 PM 47.7203 -106.4897 350° North 416 479 32,000  Level Salt Lake Center
Sun 04:03:01 PM 47.8339 -106.5206 350° North 415 478 32,000  Level Salt Lake Center
Sun 04:04:02 PM 47.9478 -106.5514 350° North 416 479 32,000  Level Salt Lake Center
Sun 04:05:04 PM 48.0842 -106.5883 350° North 416 479 32,000  Level Salt Lake Center
Sun 04:06:06 PM 48.1972 -106.6197 350° North 414 476 32,000  Level Salt Lake Center
Sun 04:07:07 PM 48.3086 -106.6717 343° North 418 481 32,000  Level Salt Lake Center
Sun 04:08:09 PM 48.4133 -106.7244 342° North 406 467 32,000  Level Salt Lake Center
Sun 04:09:11 PM 48.5211 -106.7772 342° North 405 466 32,000  Level Salt Lake Center
Sun 04:10:12 PM 48.6292 -106.8294 342° North 408 470 32,000  Level Salt Lake Center
Sun 04:11:14 PM 48.7350 -106.8836 341° North 405 466 32,000  Level Salt Lake Center
Sun 04:12:16 PM 48.8633 -106.9478 342° North 405 466 32,000  Level Salt Lake Center
Sun 04:13:17 PM 48.9694 -107.0017 342° North 403 464 32,000  Level Salt Lake Center
Sun 04:14:27 PM 49.0667 -107.1000 326° Northwest 400 460 32,000  Level Winnipeg Center
Sun 04:15:27 PM 49.1667 -107.1500 342° North 400 460 32,000  Level Winnipeg Center
Sun 04:16:27 PM 49.2833 -107.2000 344° North 400 460 32,000  Level Winnipeg Center
Sun 04:17:27 PM 49.4000 -107.2500 344° North 400 460 32,000  Level Winnipeg Center
Sun 04:18:27 PM 49.4833 -107.3167 333° Northwest 400 460 32,000  Level Winnipeg Center
Sun 04:19:27 PM 49.6000 -107.3667 344° North 400 460 32,000  Level Winnipeg Center
Sun 04:20:27 PM 49.7000 -107.4167 342° North 400 460 32,000  Level Winnipeg Center
Sun 04:21:27 PM 49.8167 -107.4667 345° North 400 460 32,000  Level Winnipeg Center
Sun 04:22:27 PM 49.9333 -107.5333 340° North 400 460 32,000  Level Winnipeg Center
Sun 04:23:27 PM 50.0167 -107.5833 339° North 400 460 32,000  Level Winnipeg Center
Sun 04:24:27 PM 50.1333 -107.6333 345° North 400 460 32,000  Level Winnipeg Center
Sun 04:25:27 PM 50.2333 -107.6833 342° North 400 460 32,000  Level Winnipeg Center
Sun 04:26:27 PM 50.3500 -107.7167 350° North 410 472 32,000  Level Winnipeg Center
Sun 04:27:27 PM 50.4667 -107.6833 10° North 420 483 32,000  Level Winnipeg Center
Sun 04:28:27 PM 50.5833 -107.7000 355° North 420 483 32,000  Level Winnipeg Center
Sun 04:29:27 PM 50.7000 -107.6667 10° North 420 483 32,000  Level Winnipeg Center
Sun 04:30:27 PM 50.8167 -107.6667 360° North 420 483 32,000  Level Winnipeg Center
Sun 04:31:27 PM 50.9167 -107.6667 360° North 430 495 32,000  Level Winnipeg Center
Sun 04:32:27 PM 51.0667 -107.6500 North 430 495 32,000 -150 Level Winnipeg Center
Sun 04:33:27 PM 51.1833 -107.6500 360° North 430 495 31,700 -1,500 Descending Winnipeg Center
Sun 04:34:27 PM 51.3000 -107.6000 15° North 430 495 29,000 -2,850 Descending Winnipeg Center
Sun 04:35:27 PM 51.4000 -107.5000 32° Northeast 420 483 26,000 -3,450 Descending Winnipeg Center
Sun 04:36:27 PM 51.5000 -107.4500 17° North 410 472 22,100 -3,650 Descending Winnipeg Center
Sun 04:37:27 PM 51.6167 -107.3667 24° Northeast 390 449 18,700 -3,400 Descending Winnipeg Center
Sun 04:38:27 PM 51.7000 -107.3000 26° Northeast 370 426 15,300 -3,500 Descending Winnipeg Center
Sun 04:39:27 PM 51.7833 -107.2500 20° North 340 391 11,700 -2,700 Descending Winnipeg Center
Sun 04:40:27 PM 51.8667 -107.2000 20° North 310 357 9,900 -1,900 Descending Winnipeg Center
Sun 04:41:27 PM 51.9333 -107.1500 25° Northeast 280 322 7,900 -1,900 Descending Winnipeg Center
Sun 04:42:27 PM 52.0000 -107.1000 25° Northeast 270 311 6,100 -1,750 Descending Winnipeg Center
Sun 04:43:27 PM 52.0500 -107.0667 22° Northeast 260 299 4,400 -1,300 Descending Winnipeg Center
Sun 04:44:27 PM 52.1333 -107.0167 20° North 260 299 3,500 -550 Descending Winnipeg Center
Sun 04:45:27 PM 52.1833 -106.9833 22° Northeast 230 265 3,300 -200 Descending Winnipeg Center

Login

Don't have an account? Register now (free) for customized features, flight alerts, and more!